sensor_id;sensor_type;location;lat;lon;timestamp;temperature;humidity
51783;DHT22;37845;53.196;5.638;2023-04-03T00:01:24;5.30;99.90
51783;DHT22;37845;53.196;5.638;2023-04-03T00:03:50;3.30;99.90
51783;DHT22;37845;53.196;5.638;2023-04-03T00:06:17;4.20;99.90
51783;DHT22;37845;53.196;5.638;2023-04-03T00:08:43;5.90;99.90
51783;DHT22;37845;53.196;5.638;2023-04-03T00:11:09;4.20;99.90
51783;DHT22;37845;53.196;5.638;2023-04-03T00:13:35;4.10;99.90
51783;DHT22;37845;53.196;5.638;2023-04-03T00:16:01;4.90;99.90
51783;DHT22;37845;53.196;5.638;2023-04-03T00:18:31;4.60;99.90
51783;DHT22;37845;53.196;5.638;2023-04-03T00:20:57;4.10;99.90
51783;DHT22;37845;53.196;5.638;2023-04-03T00:23:23;4.00;99.90
51783;DHT22;37845;53.196;5.638;2023-04-03T00:25:50;4.40;99.90
51783;DHT22;37845;53.196;5.638;2023-04-03T00:28:16;4.30;99.90
51783;DHT22;37845;53.196;5.638;2023-04-03T00:30:42;4.70;99.90
51783;DHT22;37845;53.196;5.638;2023-04-03T00:33:11;5.00;99.90
51783;DHT22;37845;53.196;5.638;2023-04-03T00:35:37;5.50;99.90
51783;DHT22;37845;53.196;5.638;2023-04-03T00:38:03;5.30;99.90
51783;DHT22;37845;53.196;5.638;2023-04-03T00:40:37;3.70;99.90
51783;DHT22;37845;53.196;5.638;2023-04-03T00:43:17;5.20;99.90
51783;DHT22;37845;53.196;5.638;2023-04-03T00:45:46;3.70;99.90
51783;DHT22;37845;53.196;5.638;2023-04-03T00:48:20;3.70;99.90
51783;DHT22;37845;53.196;5.638;2023-04-03T00:50:47;4.80;99.90
51783;DHT22;37845;53.196;5.638;2023-04-03T00:53:17;4.30;99.90
51783;DHT22;37845;53.196;5.638;2023-04-03T00:55:47;4.60;99.90
51783;DHT22;37845;53.196;5.638;2023-04-03T00:58:15;3.60;99.90
51783;DHT22;37845;53.196;5.638;2023-04-03T01:00:52;3.60;99.90
51783;DHT22;37845;53.196;5.638;2023-04-03T01:03:23;3.50;99.90
51783;DHT22;37845;53.196;5.638;2023-04-03T01:05:48;4.90;99.90
51783;DHT22;37845;53.196;5.638;2023-04-03T01:08:17;4.50;99.90
51783;DHT22;37845;53.196;5.638;2023-04-03T01:10:43;5.30;99.90
51783;DHT22;37845;53.196;5.638;2023-04-03T01:13:27;3.50;99.90
51783;DHT22;37845;53.196;5.638;2023-04-03T01:16:12;3.40;99.90
51783;DHT22;37845;53.196;5.638;2023-04-03T01:18:39;5.10;99.90
51783;DHT22;37845;53.196;5.638;2023-04-03T01:26:42;3.40;99.90
51783;DHT22;37845;53.196;5.638;2023-04-03T01:29:08;4.70;99.90
51783;DHT22;37845;53.196;5.638;2023-04-03T01:34:01;3.30;99.90
51783;DHT22;37845;53.196;5.638;2023-04-03T01:36:29;3.30;99.90
51783;DHT22;37845;53.196;5.638;2023-04-03T01:38:58;3.60;99.90
51783;DHT22;37845;53.196;5.638;2023-04-03T01:41:28;4.00;99.90
51783;DHT22;37845;53.196;5.638;2023-04-03T01:43:56;3.20;99.90
51783;DHT22;37845;53.196;5.638;2023-04-03T01:46:22;3.10;99.90
51783;DHT22;37845;53.196;5.638;2023-04-03T01:48:51;3.10;99.90
51783;DHT22;37845;53.196;5.638;2023-04-03T01:51:23;3.10;99.90
51783;DHT22;37845;53.196;5.638;2023-04-03T01:53:48;4.50;99.90
51783;DHT22;37845;53.196;5.638;2023-04-03T01:56:14;4.00;99.90
51783;DHT22;37845;53.196;5.638;2023-04-03T01:58:40;4.60;99.90
51783;DHT22;37845;53.196;5.638;2023-04-03T02:01:09;2.80;99.90
51783;DHT22;37845;53.196;5.638;2023-04-03T02:03:35;4.10;99.90
51783;DHT22;37845;53.196;5.638;2023-04-03T02:06:03;3.10;99.90
51783;DHT22;37845;53.196;5.638;2023-04-03T02:08:37;4.80;99.90
51783;DHT22;37845;53.196;5.638;2023-04-03T02:11:03;3.90;99.90
51783;DHT22;37845;53.196;5.638;2023-04-03T02:13:28;3.00;99.90
51783;DHT22;37845;53.196;5.638;2023-04-03T02:15:54;3.80;99.90
51783;DHT22;37845;53.196;5.638;2023-04-03T02:18:20;4.10;99.90
51783;DHT22;37845;53.196;5.638;2023-04-03T02:20:46;3.00;99.90
51783;DHT22;37845;53.196;5.638;2023-04-03T02:23:12;2.90;99.90
51783;DHT22;37845;53.196;5.638;2023-04-03T02:25:38;2.90;99.90
51783;DHT22;37845;53.196;5.638;2023-04-03T02:28:04;2.90;99.90
51783;DHT22;37845;53.196;5.638;2023-04-03T02:30:30;3.50;99.90
51783;DHT22;37845;53.196;5.638;2023-04-03T02:32:56;3.90;99.90
51783;DHT22;37845;53.196;5.638;2023-04-03T02:35:27;4.20;99.90
51783;DHT22;37845;53.196;5.638;2023-04-03T02:37:53;3.70;99.90
51783;DHT22;37845;53.196;5.638;2023-04-03T02:40:19;3.60;99.90
51783;DHT22;37845;53.196;5.638;2023-04-03T02:42:45;2.70;99.90
51783;DHT22;37845;53.196;5.638;2023-04-03T02:45:11;4.40;99.90
51783;DHT22;37845;53.196;5.638;2023-04-03T02:47:36;2.70;99.90
51783;DHT22;37845;53.196;5.638;2023-04-03T02:50:02;2.70;99.90
51783;DHT22;37845;53.196;5.638;2023-04-03T02:52:28;2.70;99.90
51783;DHT22;37845;53.196;5.638;2023-04-03T02:54:54;2.70;99.90
51783;DHT22;37845;53.196;5.638;2023-04-03T02:57:25;3.10;99.90
51783;DHT22;37845;53.196;5.638;2023-04-03T02:59:50;3.20;99.90
51783;DHT22;37845;53.196;5.638;2023-04-03T03:02:16;2.60;99.90
51783;DHT22;37845;53.196;5.638;2023-04-03T03:04:44;2.90;99.90
51783;DHT22;37845;53.196;5.638;2023-04-03T03:07:10;2.90;99.90
51783;DHT22;37845;53.196;5.638;2023-04-03T03:09:36;3.80;99.90
51783;DHT22;37845;53.196;5.638;2023-04-03T03:12:04;2.50;99.90
51783;DHT22;37845;53.196;5.638;2023-04-03T03:14:30;2.50;99.90
51783;DHT22;37845;53.196;5.638;2023-04-03T03:16:56;2.50;99.90
51783;DHT22;37845;53.196;5.638;2023-04-03T03:19:21;3.60;99.90
51783;DHT22;37845;53.196;5.638;2023-04-03T03:21:50;2.70;99.90
51783;DHT22;37845;53.196;5.638;2023-04-03T03:24:16;2.40;99.90
51783;DHT22;37845;53.196;5.638;2023-04-03T03:26:42;2.40;99.90
51783;DHT22;37845;53.196;5.638;2023-04-03T03:29:11;3.50;99.90
51783;DHT22;37845;53.196;5.638;2023-04-03T03:31:37;3.50;99.90
51783;DHT22;37845;53.196;5.638;2023-04-03T03:34:02;2.40;99.90
51783;DHT22;37845;53.196;5.638;2023-04-03T03:36:28;3.50;99.90
51783;DHT22;37845;53.196;5.638;2023-04-03T03:38:54;2.60;99.90
51783;DHT22;37845;53.196;5.638;2023-04-03T03:41:20;2.30;99.90
51783;DHT22;37845;53.196;5.638;2023-04-03T03:43:46;4.00;99.90
51783;DHT22;37845;53.196;5.638;2023-04-03T03:46:11;2.40;99.90
51783;DHT22;37845;53.196;5.638;2023-04-03T03:48:37;3.80;99.90
51783;DHT22;37845;53.196;5.638;2023-04-03T03:51:03;3.60;99.90
51783;DHT22;37845;53.196;5.638;2023-04-03T03:53:28;3.20;99.90
51783;DHT22;37845;53.196;5.638;2023-04-03T03:55:54;3.20;99.90
51783;DHT22;37845;53.196;5.638;2023-04-03T03:58:20;4.10;99.90
51783;DHT22;37845;53.196;5.638;2023-04-03T04:00:49;2.80;99.90
51783;DHT22;37845;53.196;5.638;2023-04-03T04:03:15;3.50;99.90
51783;DHT22;37845;53.196;5.638;2023-04-03T04:05:41;2.60;99.90
51783;DHT22;37845;53.196;5.638;2023-04-03T04:08:07;2.30;99.90
51783;DHT22;37845;53.196;5.638;2023-04-03T04:10:34;2.70;99.90
51783;DHT22;37845;53.196;5.638;2023-04-03T04:12:59;2.10;99.90
51783;DHT22;37845;53.196;5.638;2023-04-03T04:15:25;2.90;99.90
51783;DHT22;37845;53.196;5.638;2023-04-03T04:17:52;2.20;99.90
51783;DHT22;37845;53.196;5.638;2023-04-03T04:20:21;3.80;99.90
51783;DHT22;37845;53.196;5.638;2023-04-03T04:22:46;2.30;99.90
51783;DHT22;37845;53.196;5.638;2023-04-03T04:25:12;3.20;99.90
51783;DHT22;37845;53.196;5.638;2023-04-03T04:27:38;3.00;99.90
51783;DHT22;37845;53.196;5.638;2023-04-03T04:30:07;2.10;99.90
51783;DHT22;37845;53.196;5.638;2023-04-03T04:32:33;2.10;99.90
51783;DHT22;37845;53.196;5.638;2023-04-03T04:34:59;3.20;99.90
51783;DHT22;37845;53.196;5.638;2023-04-03T04:37:25;3.90;99.90
51783;DHT22;37845;53.196;5.638;2023-04-03T04:39:50;3.30;99.90
51783;DHT22;37845;53.196;5.638;2023-04-03T04:42:16;3.80;99.90
51783;DHT22;37845;53.196;5.638;2023-04-03T04:44:42;3.20;99.90
51783;DHT22;37845;53.196;5.638;2023-04-03T04:47:08;3.80;99.90
51783;DHT22;37845;53.196;5.638;2023-04-03T04:49:33;2.60;99.90
51783;DHT22;37845;53.196;5.638;2023-04-03T04:51:59;3.20;99.90
51783;DHT22;37845;53.196;5.638;2023-04-03T04:54:25;1.90;99.90
51783;DHT22;37845;53.196;5.638;2023-04-03T04:56:51;2.20;99.90
51783;DHT22;37845;53.196;5.638;2023-04-03T04:59:16;2.70;99.90
51783;DHT22;37845;53.196;5.638;2023-04-03T05:01:42;1.90;99.90
51783;DHT22;37845;53.196;5.638;2023-04-03T05:04:08;3.60;99.90
51783;DHT22;37845;53.196;5.638;2023-04-03T05:06:34;1.80;99.90
51783;DHT22;37845;53.196;5.638;2023-04-03T05:09:01;3.00;99.90
51783;DHT22;37845;53.196;5.638;2023-04-03T05:11:26;1.90;99.90
51783;DHT22;37845;53.196;5.638;2023-04-03T05:13:52;2.90;99.90
51783;DHT22;37845;53.196;5.638;2023-04-03T05:16:18;3.10;99.90
51783;DHT22;37845;53.196;5.638;2023-04-03T05:18:43;3.20;99.90
51783;DHT22;37845;53.196;5.638;2023-04-03T05:21:09;1.70;99.90
51783;DHT22;37845;53.196;5.638;2023-04-03T05:23:35;1.70;99.90
51783;DHT22;37845;53.196;5.638;2023-04-03T05:26:00;3.50;99.90
51783;DHT22;37845;53.196;5.638;2023-04-03T05:28:29;1.70;99.90
51783;DHT22;37845;53.196;5.638;2023-04-03T05:30:55;1.70;99.90
51783;DHT22;37845;53.196;5.638;2023-04-03T05:33:22;3.40;99.90
51783;DHT22;37845;53.196;5.638;2023-04-03T05:35:48;2.90;99.90
51783;DHT22;37845;53.196;5.638;2023-04-03T05:38:14;2.60;99.90
51783;DHT22;37845;53.196;5.638;2023-04-03T05:40:40;1.70;99.90
51783;DHT22;37845;53.196;5.638;2023-04-03T05:43:06;1.40;99.90
51783;DHT22;37845;53.196;5.638;2023-04-03T05:45:32;1.90;99.90
51783;DHT22;37845;53.196;5.638;2023-04-03T05:47:58;3.20;99.90
51783;DHT22;37845;53.196;5.638;2023-04-03T05:54:06;1.80;99.90
51783;DHT22;37845;53.196;5.638;2023-04-03T05:56:33;2.50;99.90
51783;DHT22;37845;53.196;5.638;2023-04-03T05:58:59;1.70;99.90
51783;DHT22;37845;53.196;5.638;2023-04-03T06:01:25;2.70;99.90
51783;DHT22;37845;53.196;5.638;2023-04-03T06:03:53;1.80;99.90
51783;DHT22;37845;53.196;5.638;2023-04-03T06:06:24;2.50;99.90
51783;DHT22;37845;53.196;5.638;2023-04-03T06:08:50;3.00;99.90
51783;DHT22;37845;53.196;5.638;2023-04-03T06:11:16;1.90;99.90
51783;DHT22;37845;53.196;5.638;2023-04-03T06:13:42;1.90;99.90
51783;DHT22;37845;53.196;5.638;2023-04-03T06:16:11;3.40;99.90
51783;DHT22;37845;53.196;5.638;2023-04-03T06:18:39;2.00;99.90
51783;DHT22;37845;53.196;5.638;2023-04-03T06:21:06;2.10;99.90
51783;DHT22;37845;53.196;5.638;2023-04-03T06:23:35;2.50;99.90
51783;DHT22;37845;53.196;5.638;2023-04-03T06:26:02;3.00;99.90
51783;DHT22;37845;53.196;5.638;2023-04-03T06:28:27;3.60;99.90
51783;DHT22;37845;53.196;5.638;2023-04-03T06:30:53;4.20;99.90
51783;DHT22;37845;53.196;5.638;2023-04-03T06:33:19;2.80;99.90
51783;DHT22;37845;53.196;5.638;2023-04-03T06:35:45;3.60;99.90
51783;DHT22;37845;53.196;5.638;2023-04-03T06:38:10;3.80;99.90
51783;DHT22;37845;53.196;5.638;2023-04-03T06:40:36;3.50;99.90
51783;DHT22;37845;53.196;5.638;2023-04-03T06:43:02;3.00;99.90
51783;DHT22;37845;53.196;5.638;2023-04-03T06:45:28;2.50;99.90
51783;DHT22;37845;53.196;5.638;2023-04-03T06:47:56;4.00;99.90
51783;DHT22;37845;53.196;5.638;2023-04-03T06:50:22;2.60;99.90
51783;DHT22;37845;53.196;5.638;2023-04-03T06:52:48;3.80;99.90
51783;DHT22;37845;53.196;5.638;2023-04-03T06:55:13;2.70;99.90
51783;DHT22;37845;53.196;5.638;2023-04-03T06:57:39;2.80;99.90
51783;DHT22;37845;53.196;5.638;2023-04-03T07:00:06;3.80;99.90
51783;DHT22;37845;53.196;5.638;2023-04-03T07:02:33;2.90;99.90
51783;DHT22;37845;53.196;5.638;2023-04-03T07:05:01;4.20;99.90
51783;DHT22;37845;53.196;5.638;2023-04-03T07:07:27;3.00;99.90
51783;DHT22;37845;53.196;5.638;2023-04-03T07:09:53;3.90;99.90
51783;DHT22;37845;53.196;5.638;2023-04-03T07:12:19;2.90;99.90
51783;DHT22;37845;53.196;5.638;2023-04-03T07:14:44;4.80;99.90
51783;DHT22;37845;53.196;5.638;2023-04-03T07:17:10;3.20;99.90
51783;DHT22;37845;53.196;5.638;2023-04-03T07:19:36;3.60;99.90
51783;DHT22;37845;53.196;5.638;2023-04-03T07:22:02;4.40;99.90
51783;DHT22;37845;53.196;5.638;2023-04-03T07:24:27;3.40;99.90
51783;DHT22;37845;53.196;5.638;2023-04-03T07:26:53;3.50;99.90
51783;DHT22;37845;53.196;5.638;2023-04-03T07:29:19;3.60;99.90
51783;DHT22;37845;53.196;5.638;2023-04-03T07:31:46;3.60;99.90
51783;DHT22;37845;53.196;5.638;2023-04-03T07:34:12;3.70;99.90
51783;DHT22;37845;53.196;5.638;2023-04-03T07:36:38;4.80;99.90
51783;DHT22;37845;53.196;5.638;2023-04-03T07:39:04;3.90;99.90
51783;DHT22;37845;53.196;5.638;2023-04-03T07:41:30;3.80;99.90
51783;DHT22;37845;53.196;5.638;2023-04-03T07:43:56;4.00;99.90
51783;DHT22;37845;53.196;5.638;2023-04-03T07:46:22;4.00;99.90
51783;DHT22;37845;53.196;5.638;2023-04-03T07:48:48;4.10;99.90
51783;DHT22;37845;53.196;5.638;2023-04-03T07:51:14;5.70;99.90
51783;DHT22;37845;53.196;5.638;2023-04-03T07:53:40;4.30;99.90
51783;DHT22;37845;53.196;5.638;2023-04-03T07:56:06;4.90;99.90
51783;DHT22;37845;53.196;5.638;2023-04-03T07:58:32;4.30;99.90
51783;DHT22;37845;53.196;5.638;2023-04-03T08:00:59;5.00;99.90
51783;DHT22;37845;53.196;5.638;2023-04-03T08:03:25;5.50;99.90
51783;DHT22;37845;53.196;5.638;2023-04-03T08:05:51;4.60;99.90
51783;DHT22;37845;53.196;5.638;2023-04-03T08:08:22;5.90;99.90
51783;DHT22;37845;53.196;5.638;2023-04-03T08:10:49;4.50;99.90
51783;DHT22;37845;53.196;5.638;2023-04-03T08:13:16;5.10;99.90
51783;DHT22;37845;53.196;5.638;2023-04-03T08:15:47;5.90;99.90
51783;DHT22;37845;53.196;5.638;2023-04-03T08:18:14;5.70;99.90
51783;DHT22;37845;53.196;5.638;2023-04-03T08:20:40;5.30;99.90
51783;DHT22;37845;53.196;5.638;2023-04-03T08:23:06;4.90;99.90
51783;DHT22;37845;53.196;5.638;2023-04-03T08:25:42;5.00;99.90
51783;DHT22;37845;53.196;5.638;2023-04-03T08:28:09;5.50;99.90
51783;DHT22;37845;53.196;5.638;2023-04-03T08:30:38;5.50;99.90
51783;DHT22;37845;53.196;5.638;2023-04-03T08:33:04;5.30;99.90
51783;DHT22;37845;53.196;5.638;2023-04-03T08:35:30;6.50;99.90
51783;DHT22;37845;53.196;5.638;2023-04-03T08:37:55;6.60;99.90
51783;DHT22;37845;53.196;5.638;2023-04-03T08:40:24;5.90;99.90
51783;DHT22;37845;53.196;5.638;2023-04-03T08:43:24;5.50;99.90
51783;DHT22;37845;53.196;5.638;2023-04-03T08:45:59;5.60;99.90
51783;DHT22;37845;53.196;5.638;2023-04-03T08:48:33;5.60;99.90
51783;DHT22;37845;53.196;5.638;2023-04-03T08:51:09;5.70;99.90
51783;DHT22;37845;53.196;5.638;2023-04-03T08:54:01;6.40;99.90
51783;DHT22;37845;53.196;5.638;2023-04-03T08:56:30;5.90;99.90
51783;DHT22;37845;53.196;5.638;2023-04-03T08:59:10;5.90;99.90
51783;DHT22;37845;53.196;5.638;2023-04-03T09:01:41;6.10;99.90
51783;DHT22;37845;53.196;5.638;2023-04-03T09:04:13;6.10;99.90
51783;DHT22;37845;53.196;5.638;2023-04-03T09:06:39;6.20;99.90
51783;DHT22;37845;53.196;5.638;2023-04-03T09:14:32;6.40;99.90
51783;DHT22;37845;53.196;5.638;2023-04-03T09:17:04;6.40;99.90
51783;DHT22;37845;53.196;5.638;2023-04-03T09:22:42;6.60;99.90
51783;DHT22;37845;53.196;5.638;2023-04-03T09:25:38;6.60;99.90
51783;DHT22;37845;53.196;5.638;2023-04-03T09:28:04;6.70;99.90
51783;DHT22;37845;53.196;5.638;2023-04-03T09:30:35;6.80;99.90
51783;DHT22;37845;53.196;5.638;2023-04-03T09:33:02;6.90;99.90
51783;DHT22;37845;53.196;5.638;2023-04-03T09:35:45;6.90;99.90
51783;DHT22;37845;53.196;5.638;2023-04-03T09:40:41;7.20;99.90
51783;DHT22;37845;53.196;5.638;2023-04-03T09:43:24;7.10;99.90
51783;DHT22;37845;53.196;5.638;2023-04-03T09:48:26;6.20;99.90
51783;DHT22;37845;53.196;5.638;2023-04-03T09:50:59;7.30;99.90
51783;DHT22;37845;53.196;5.638;2023-04-03T09:53:38;7.40;99.90
51783;DHT22;37845;53.196;5.638;2023-04-03T09:56:27;7.50;99.90
51783;DHT22;37845;53.196;5.638;2023-04-03T10:06:36;7.80;99.90
51783;DHT22;37845;53.196;5.638;2023-04-03T10:09:14;7.90;99.90
51783;DHT22;37845;53.196;5.638;2023-04-03T10:14:27;8.10;99.90
51783;DHT22;37845;53.196;5.638;2023-04-03T10:17:18;8.10;99.90
51783;DHT22;37845;53.196;5.638;2023-04-03T10:28:57;8.30;98.80
51783;DHT22;37845;53.196;5.638;2023-04-03T10:34:32;8.30;99.10
51783;DHT22;37845;53.196;5.638;2023-04-03T10:37:26;8.40;96.70
51783;DHT22;37845;53.196;5.638;2023-04-03T10:40:47;8.50;97.50
51783;DHT22;37845;53.196;5.638;2023-04-03T10:42:53;8.40;97.50
51783;DHT22;37845;53.196;5.638;2023-04-03T10:48:12;8.60;97.30
51783;DHT22;37845;53.196;5.638;2023-04-03T10:56:15;8.70;96.10
51783;DHT22;37845;53.196;5.638;2023-04-03T10:58:44;8.80;96.00
51783;DHT22;37845;53.196;5.638;2023-04-03T11:01:18;8.90;96.40
51783;DHT22;37845;53.196;5.638;2023-04-03T11:03:59;8.90;96.20
51783;DHT22;37845;53.196;5.638;2023-04-03T11:06:34;9.00;95.70
51783;DHT22;37845;53.196;5.638;2023-04-03T11:11:44;9.00;94.40
51783;DHT22;37845;53.196;5.638;2023-04-03T11:16:47;9.20;94.40
51783;DHT22;37845;53.196;5.638;2023-04-03T11:19:21;9.70;94.90
51783;DHT22;37845;53.196;5.638;2023-04-03T11:21:57;9.30;94.30
51783;DHT22;37845;53.196;5.638;2023-04-03T11:24:29;9.40;94.50
51783;DHT22;37845;53.196;5.638;2023-04-03T11:26:58;9.40;94.40
51783;DHT22;37845;53.196;5.638;2023-04-03T11:29:32;9.50;94.20
51783;DHT22;37845;53.196;5.638;2023-04-03T11:34:48;9.40;91.60
51783;DHT22;37845;53.196;5.638;2023-04-03T11:37:38;9.50;93.60
51783;DHT22;37845;53.196;5.638;2023-04-03T11:42:49;9.60;93.50
51783;DHT22;37845;53.196;5.638;2023-04-03T11:48:59;9.60;92.10
51783;DHT22;37845;53.196;5.638;2023-04-03T11:53:54;9.80;92.80
51783;DHT22;37845;53.196;5.638;2023-04-03T12:01:45;9.90;91.80
51783;DHT22;37845;53.196;5.638;2023-04-03T12:04:13;9.90;92.00
51783;DHT22;37845;53.196;5.638;2023-04-03T12:06:49;9.90;92.10
51783;DHT22;37845;53.196;5.638;2023-04-03T12:11:51;10.00;91.00
51783;DHT22;37845;53.196;5.638;2023-04-03T12:14:22;10.10;92.10
51783;DHT22;37845;53.196;5.638;2023-04-03T12:16:50;10.10;91.70
51783;DHT22;37845;53.196;5.638;2023-04-03T12:19:38;10.20;91.10
51783;DHT22;37845;53.196;5.638;2023-04-03T12:22:14;10.20;90.50
51783;DHT22;37845;53.196;5.638;2023-04-03T12:24:46;10.20;90.70
51783;DHT22;37845;53.196;5.638;2023-04-03T12:27:33;11.30;91.10
51783;DHT22;37845;53.196;5.638;2023-04-03T12:30:21;10.30;91.00
51783;DHT22;37845;53.196;5.638;2023-04-03T12:33:16;10.40;91.40
51783;DHT22;37845;53.196;5.638;2023-04-03T12:39:13;10.40;89.80
51783;DHT22;37845;53.196;5.638;2023-04-03T12:41:52;10.60;90.80
51783;DHT22;37845;53.196;5.638;2023-04-03T12:44:35;10.50;90.60
51783;DHT22;37845;53.196;5.638;2023-04-03T12:47:29;10.40;90.30
51783;DHT22;37845;53.196;5.638;2023-04-03T12:49:54;10.40;90.20
51783;DHT22;37845;53.196;5.638;2023-04-03T12:54:59;10.40;90.80
51783;DHT22;37845;53.196;5.638;2023-04-03T12:57:30;10.50;90.30
51783;DHT22;37845;53.196;5.638;2023-04-03T12:59:58;10.50;90.40
51783;DHT22;37845;53.196;5.638;2023-04-03T13:02:33;9.50;90.10
51783;DHT22;37845;53.196;5.638;2023-04-03T13:05:13;10.90;90.50
51783;DHT22;37845;53.196;5.638;2023-04-03T13:07:39;10.50;90.10
51783;DHT22;37845;53.196;5.638;2023-04-03T13:10:15;10.50;90.40
51783;DHT22;37845;53.196;5.638;2023-04-03T13:12:50;10.40;89.70
51783;DHT22;37845;53.196;5.638;2023-04-03T13:15:44;10.40;90.00
51783;DHT22;37845;53.196;5.638;2023-04-03T13:18:33;10.50;89.40
51783;DHT22;37845;53.196;5.638;2023-04-03T13:21:15;10.50;88.20
51783;DHT22;37845;53.196;5.638;2023-04-03T13:23:46;10.50;88.30
51783;DHT22;37845;53.196;5.638;2023-04-03T13:26:15;10.40;88.30
51783;DHT22;37845;53.196;5.638;2023-04-03T13:28:42;10.40;89.00
51783;DHT22;37845;53.196;5.638;2023-04-03T13:31:31;10.40;89.50
51783;DHT22;37845;53.196;5.638;2023-04-03T13:34:15;11.20;88.80
51783;DHT22;37845;53.196;5.638;2023-04-03T13:41:45;10.50;89.60
51783;DHT22;37845;53.196;5.638;2023-04-03T13:44:35;10.50;89.20
51783;DHT22;37845;53.196;5.638;2023-04-03T13:50:03;10.60;88.50
51783;DHT22;37845;53.196;5.638;2023-04-03T13:52:33;10.60;89.80
51783;DHT22;37845;53.196;5.638;2023-04-03T13:55:23;10.60;89.70
51783;DHT22;37845;53.196;5.638;2023-04-03T14:00:39;10.50;88.00
51783;DHT22;37845;53.196;5.638;2023-04-03T14:03:31;10.50;88.60
51783;DHT22;37845;53.196;5.638;2023-04-03T14:05:58;10.50;89.30
51783;DHT22;37845;53.196;5.638;2023-04-03T14:08:25;10.50;89.60
51783;DHT22;37845;53.196;5.638;2023-04-03T14:10:51;10.60;90.10
51783;DHT22;37845;53.196;5.638;2023-04-03T14:13:17;10.60;90.10
51783;DHT22;37845;53.196;5.638;2023-04-03T14:15:44;10.60;89.40
51783;DHT22;37845;53.196;5.638;2023-04-03T14:18:16;10.60;90.00
51783;DHT22;37845;53.196;5.638;2023-04-03T14:20:42;10.50;89.50
51783;DHT22;37845;53.196;5.638;2023-04-03T14:23:07;10.50;89.60
51783;DHT22;37845;53.196;5.638;2023-04-03T14:25:36;10.50;89.60
51783;DHT22;37845;53.196;5.638;2023-04-03T14:28:06;10.40;88.50
51783;DHT22;37845;53.196;5.638;2023-04-03T14:30:40;10.40;89.30
51783;DHT22;37845;53.196;5.638;2023-04-03T14:33:06;10.40;88.90
51783;DHT22;37845;53.196;5.638;2023-04-03T14:35:32;10.40;88.80
51783;DHT22;37845;53.196;5.638;2023-04-03T14:38:00;10.40;88.30
51783;DHT22;37845;53.196;5.638;2023-04-03T14:40:27;10.50;90.30
51783;DHT22;37845;53.196;5.638;2023-04-03T14:42:53;10.50;90.30
51783;DHT22;37845;53.196;5.638;2023-04-03T14:45:21;10.50;89.70
51783;DHT22;37845;53.196;5.638;2023-04-03T14:47:50;10.40;89.60
51783;DHT22;37845;53.196;5.638;2023-04-03T14:50:22;10.50;89.80
51783;DHT22;37845;53.196;5.638;2023-04-03T14:52:50;10.40;89.30
51783;DHT22;37845;53.196;5.638;2023-04-03T14:55:18;10.40;89.70
51783;DHT22;37845;53.196;5.638;2023-04-03T14:57:45;10.40;89.70
51783;DHT22;37845;53.196;5.638;2023-04-03T15:00:19;10.40;90.30
51783;DHT22;37845;53.196;5.638;2023-04-03T15:02:45;10.40;89.30
51783;DHT22;37845;53.196;5.638;2023-04-03T15:05:11;10.40;89.90
51783;DHT22;37845;53.196;5.638;2023-04-03T15:07:43;10.50;90.20
51783;DHT22;37845;53.196;5.638;2023-04-03T15:10:18;10.50;90.30
51783;DHT22;37845;53.196;5.638;2023-04-03T15:12:44;10.60;89.90
51783;DHT22;37845;53.196;5.638;2023-04-03T15:15:10;10.40;90.00
51783;DHT22;37845;53.196;5.638;2023-04-03T15:17:43;10.40;89.80
51783;DHT22;37845;53.196;5.638;2023-04-03T15:20:21;10.40;89.10
51783;DHT22;37845;53.196;5.638;2023-04-03T15:22:47;10.40;89.00
51783;DHT22;37845;53.196;5.638;2023-04-03T15:25:15;10.30;89.90
51783;DHT22;37845;53.196;5.638;2023-04-03T15:27:42;10.40;90.20
51783;DHT22;37845;53.196;5.638;2023-04-03T15:30:15;10.30;90.80
51783;DHT22;37845;53.196;5.638;2023-04-03T15:32:44;10.20;91.60
51783;DHT22;37845;53.196;5.638;2023-04-03T15:35:10;10.10;92.00
51783;DHT22;37845;53.196;5.638;2023-04-03T15:37:36;10.00;92.50
51783;DHT22;37845;53.196;5.638;2023-04-03T15:40:04;9.90;92.80
51783;DHT22;37845;53.196;5.638;2023-04-03T15:42:33;9.80;93.00
51783;DHT22;37845;53.196;5.638;2023-04-03T15:44:59;9.70;93.40
51783;DHT22;37845;53.196;5.638;2023-04-03T15:47:25;9.80;93.80
51783;DHT22;37845;53.196;5.638;2023-04-03T15:49:51;9.60;93.90
51783;DHT22;37845;53.196;5.638;2023-04-03T15:52:21;9.70;94.20
51783;DHT22;37845;53.196;5.638;2023-04-03T15:54:46;9.70;94.40
51783;DHT22;37845;53.196;5.638;2023-04-03T15:57:15;9.60;94.60
51783;DHT22;37845;53.196;5.638;2023-04-03T15:59:41;9.70;94.40
51783;DHT22;37845;53.196;5.638;2023-04-03T16:02:07;9.60;94.40
51783;DHT22;37845;53.196;5.638;2023-04-03T16:04:35;9.50;94.60
51783;DHT22;37845;53.196;5.638;2023-04-03T16:07:02;9.60;95.00
51783;DHT22;37845;53.196;5.638;2023-04-03T16:09:34;9.50;94.80
51783;DHT22;37845;53.196;5.638;2023-04-03T16:12:03;9.50;94.80
51783;DHT22;37845;53.196;5.638;2023-04-03T16:14:29;9.40;94.60
51783;DHT22;37845;53.196;5.638;2023-04-03T16:16:57;9.80;94.50
51783;DHT22;37845;53.196;5.638;2023-04-03T16:19:23;9.40;94.30
51783;DHT22;37845;53.196;5.638;2023-04-03T16:21:49;9.30;94.30
51783;DHT22;37845;53.196;5.638;2023-04-03T16:24:15;9.20;94.00
51783;DHT22;37845;53.196;5.638;2023-04-03T16:26:40;9.30;93.90
51783;DHT22;37845;53.196;5.638;2023-04-03T16:29:06;9.20;93.90
51783;DHT22;37845;53.196;5.638;2023-04-03T16:31:34;9.20;94.10
51783;DHT22;37845;53.196;5.638;2023-04-03T16:34:03;9.20;93.90
51783;DHT22;37845;53.196;5.638;2023-04-03T16:36:29;9.20;93.80
51783;DHT22;37845;53.196;5.638;2023-04-03T16:39:01;9.10;93.60
51783;DHT22;37845;53.196;5.638;2023-04-03T16:41:26;9.00;93.30
51783;DHT22;37845;53.196;5.638;2023-04-03T16:43:52;9.10;93.90
51783;DHT22;37845;53.196;5.638;2023-04-03T16:46:18;9.00;93.50
51783;DHT22;37845;53.196;5.638;2023-04-03T16:48:44;9.00;93.10
51783;DHT22;37845;53.196;5.638;2023-04-03T16:51:09;9.10;94.00
51783;DHT22;37845;53.196;5.638;2023-04-03T16:53:35;9.10;94.20
51783;DHT22;37845;53.196;5.638;2023-04-03T16:56:02;9.10;94.10
51783;DHT22;37845;53.196;5.638;2023-04-03T16:58:28;9.20;94.40
51783;DHT22;37845;53.196;5.638;2023-04-03T17:00:54;9.10;94.20
51783;DHT22;37845;53.196;5.638;2023-04-03T17:03:21;9.10;94.50
51783;DHT22;37845;53.196;5.638;2023-04-03T17:05:48;9.00;94.60
51783;DHT22;37845;53.196;5.638;2023-04-03T17:08:15;8.90;94.20
51783;DHT22;37845;53.196;5.638;2023-04-03T17:10:41;8.80;94.30
51783;DHT22;37845;53.196;5.638;2023-04-03T17:13:07;9.00;94.60
51783;DHT22;37845;53.196;5.638;2023-04-03T17:15:33;8.70;94.40
51783;DHT22;37845;53.196;5.638;2023-04-03T17:17:59;8.60;94.90
51783;DHT22;37845;53.196;5.638;2023-04-03T17:20:28;8.40;94.90
51783;DHT22;37845;53.196;5.638;2023-04-03T17:22:54;8.40;95.10
51783;DHT22;37845;53.196;5.638;2023-04-03T17:25:20;8.40;95.00
51783;DHT22;37845;53.196;5.638;2023-04-03T17:27:45;8.40;95.30
51783;DHT22;37845;53.196;5.638;2023-04-03T17:30:11;8.70;95.40
51783;DHT22;37845;53.196;5.638;2023-04-03T17:32:37;8.20;95.20